createdAt,value
2023-01-24T00:01:29.303Z,88.68
2023-01-24T00:03:57.162Z,88.86
2023-01-24T00:06:25.104Z,89.21
2023-01-24T00:08:52.886Z,89.28
2023-01-24T00:11:20.677Z,89.03
2023-01-24T00:13:48.640Z,88.99
2023-01-24T00:16:18.095Z,89.03
2023-01-24T00:18:48.652Z,89.32
2023-01-24T00:21:18.882Z,88.92
2023-01-24T00:23:48.627Z,88.91
2023-01-24T00:26:17.724Z,88.90
2023-01-24T00:28:47.686Z,88.99
2023-01-24T00:31:16.529Z,88.76
2023-01-24T00:33:44.617Z,88.69
2023-01-24T00:36:14.412Z,88.60
2023-01-24T00:38:42.355Z,88.86
2023-01-24T00:41:10.367Z,88.97
2023-01-24T00:43:38.266Z,88.83
2023-01-24T00:46:07.670Z,88.83
2023-01-24T00:48:35.919Z,89.27
2023-01-24T00:51:03.756Z,89.28
2023-01-24T00:53:33.052Z,89.38
2023-01-24T00:56:00.956Z,89.51
2023-01-24T00:58:28.796Z,89.40
2023-01-24T01:00:57.880Z,89.42
2023-01-24T01:03:25.896Z,89.56
2023-01-24T01:05:59.974Z,89.77
2023-01-24T01:08:27.885Z,89.79
2023-01-24T01:10:57.038Z,89.87
2023-01-24T01:13:25.283Z,89.84
2023-01-24T01:15:53.189Z,89.76
2023-01-24T01:18:21.024Z,89.67
2023-01-24T01:20:52.631Z,89.51
2023-01-24T01:23:20.468Z,89.45
2023-01-24T01:25:48.298Z,89.61
2023-01-24T01:28:17.528Z,89.38
2023-01-24T01:30:45.402Z,89.52
2023-01-24T01:33:14.290Z,89.50
2023-01-24T01:35:42.026Z,89.50
2023-01-24T01:38:09.798Z,89.44
2023-01-24T01:40:37.557Z,89.38
2023-01-24T01:43:05.353Z,89.07
2023-01-24T01:45:40.778Z,89.26
2023-01-24T01:48:20.750Z,89.05
2023-01-24T01:50:53.964Z,88.73
2023-01-24T01:53:23.955Z,88.88
2023-01-24T01:55:57.227Z,89.05
2023-01-24T01:58:25.288Z,88.82
2023-01-24T02:00:54.444Z,88.54
2023-01-24T02:03:41.876Z,88.84
2023-01-24T02:06:24.093Z,88.92
2023-01-24T02:08:53.485Z,88.98
2023-01-24T02:11:38.887Z,89.25
2023-01-24T02:14:26.694Z,89.37
2023-01-24T02:16:56.097Z,89.36
2023-01-24T02:19:49.465Z,89.37
2023-01-24T02:22:24.584Z,89.27
2023-01-24T02:25:02.899Z,89.24
2023-01-24T02:27:32.149Z,89.27
2023-01-24T02:30:00.520Z,88.99
2023-01-24T02:32:28.448Z,88.81
2023-01-24T02:34:56.901Z,89.26
2023-01-24T02:37:26.810Z,89.20
2023-01-24T02:39:59.824Z,89.14
2023-01-24T02:42:34.628Z,89.18
2023-01-24T02:45:10.580Z,89.23
2023-01-24T02:47:42.341Z,89.25
2023-01-24T02:50:11.375Z,89.51
2023-01-24T02:52:56.622Z,89.75
2023-01-24T02:55:26.063Z,89.45
2023-01-24T02:58:09.496Z,90.12
2023-01-24T03:00:40.832Z,90.53
2023-01-24T03:03:10.863Z,90.49
2023-01-24T03:05:57.561Z,90.54
2023-01-24T03:08:33.324Z,90.54
2023-01-24T03:11:03.548Z,90.63
2023-01-24T03:13:51.970Z,90.81
2023-01-24T03:16:37.762Z,90.71
2023-01-24T03:19:23.511Z,90.90
2023-01-24T03:22:09.037Z,91.19
2023-01-24T03:24:55.878Z,90.90
2023-01-24T03:27:40.990Z,91.16
2023-01-24T03:30:29.831Z,91.35
2023-01-24T03:33:19.404Z,91.06
2023-01-24T03:35:54.536Z,91.12
2023-01-24T03:38:42.997Z,91.12
2023-01-24T03:41:11.738Z,91.06
2023-01-24T03:43:41.106Z,90.94
2023-01-24T03:46:11.925Z,91.04
2023-01-24T03:48:47.773Z,90.95
2023-01-24T03:51:33.074Z,90.61
2023-01-24T03:54:01.417Z,90.98
2023-01-24T03:56:37.409Z,90.67
2023-01-24T03:59:06.333Z,90.81
2023-01-24T04:01:38.349Z,90.83
2023-01-24T04:04:21.163Z,91.03
2023-01-24T04:06:48.959Z,91.08
2023-01-24T04:09:17.378Z,90.90
2023-01-24T04:11:45.746Z,90.94
2023-01-24T04:14:18.716Z,91.42
2023-01-24T04:17:04.984Z,91.37
2023-01-24T04:19:41.197Z,91.30
2023-01-24T04:22:09.399Z,91.20
2023-01-24T04:24:39.717Z,91.20
2023-01-24T04:27:07.614Z,91.16
2023-01-24T04:29:56.078Z,91.28
2023-01-24T04:32:25.290Z,91.51
2023-01-24T04:35:00.591Z,91.71
2023-01-24T04:37:45.340Z,91.73
2023-01-24T04:40:15.821Z,92.02
2023-01-24T04:42:44.363Z,91.84
2023-01-24T04:45:13.249Z,91.99
2023-01-24T04:47:42.858Z,92.10
2023-01-24T04:50:12.014Z,92.01
2023-01-24T04:52:39.842Z,91.67
2023-01-24T04:55:10.998Z,91.85
2023-01-24T04:57:39.446Z,92.01
2023-01-24T05:00:10.408Z,92.11
2023-01-24T05:02:39.296Z,92.14
2023-01-24T05:05:10.440Z,92.23
2023-01-24T05:07:38.815Z,92.48
2023-01-24T05:10:12.517Z,92.55
2023-01-24T05:12:40.490Z,92.68
2023-01-24T05:15:15.209Z,92.56
2023-01-24T05:17:45.052Z,92.46
2023-01-24T05:20:18.595Z,92.13
2023-01-24T05:22:47.892Z,92.35
2023-01-24T05:25:16.777Z,92.53
2023-01-24T05:27:45.738Z,92.37
2023-01-24T05:30:15.702Z,92.50
2023-01-24T05:32:44.725Z,92.56
2023-01-24T05:35:12.550Z,92.74
2023-01-24T05:37:41.937Z,92.84
2023-01-24T05:40:12.314Z,92.86
2023-01-24T05:42:43.082Z,93.07
2023-01-24T05:45:13.072Z,93.00
2023-01-24T05:47:41.340Z,93.05
2023-01-24T05:50:12.388Z,93.01
2023-01-24T05:52:41.684Z,92.87
2023-01-24T05:55:09.934Z,92.74
2023-01-24T05:57:41.013Z,92.82
2023-01-24T06:00:31.450Z,92.77
2023-01-24T06:03:17.765Z,92.97
2023-01-24T06:05:50.390Z,93.47
2023-01-24T06:08:21.625Z,93.41
2023-01-24T06:10:50.341Z,93.64
2023-01-24T06:13:20.173Z,93.91
2023-01-24T06:15:48.043Z,93.93
2023-01-24T06:18:19.624Z,94.07
2023-01-24T06:20:51.141Z,93.84
2023-01-24T06:23:26.106Z,94.13
2023-01-24T06:25:58.288Z,94.25
2023-01-24T06:28:26.702Z,94.31
2023-01-24T06:31:03.846Z,93.96
2023-01-24T06:33:53.388Z,94.21
2023-01-24T06:36:32.431Z,94.14
2023-01-24T06:39:02.289Z,94.28
2023-01-24T06:41:30.493Z,94.56
2023-01-24T06:43:58.680Z,94.38
2023-01-24T06:46:26.691Z,94.53
2023-01-24T06:48:54.488Z,94.96
2023-01-24T06:51:22.291Z,94.90
2023-01-24T06:53:50.033Z,95.07
2023-01-24T06:56:19.156Z,94.83
2023-01-24T06:58:46.919Z,94.80
2023-01-24T07:01:14.828Z,94.75
2023-01-24T07:03:42.631Z,94.91
2023-01-24T07:06:10.451Z,94.88
2023-01-24T07:08:38.222Z,94.87
2023-01-24T07:11:06.131Z,95.15
2023-01-24T07:13:35.321Z,95.14
2023-01-24T07:16:03.731Z,95.14
2023-01-24T07:18:32.010Z,95.14
2023-01-24T07:21:00.351Z,95.03
2023-01-24T07:23:31.121Z,94.92
2023-01-24T07:25:59.429Z,94.70
2023-01-24T07:28:27.342Z,94.71
2023-01-24T07:30:57.302Z,94.93
2023-01-24T07:33:25.147Z,95.10
2023-01-24T07:35:52.923Z,94.89
2023-01-24T07:38:20.749Z,94.98
2023-01-24T07:40:48.553Z,94.90
2023-01-24T07:43:16.439Z,94.61
2023-01-24T07:45:47.243Z,94.61
2023-01-24T07:48:16.420Z,94.59
2023-01-24T07:50:44.218Z,94.79
2023-01-24T07:53:12.040Z,94.78
2023-01-24T07:55:40.333Z,94.92
2023-01-24T07:58:09.083Z,95.04
2023-01-24T08:00:36.961Z,95.01
2023-01-24T08:03:04.848Z,95.11
2023-01-24T08:05:33.991Z,95.44
2023-01-24T08:08:01.805Z,95.40
2023-01-24T08:10:30.233Z,95.46
2023-01-24T08:12:58.595Z,95.55
2023-01-24T08:15:26.536Z,95.81
2023-01-24T08:17:54.740Z,95.87
2023-01-24T08:20:22.901Z,95.97
2023-01-24T08:22:58.033Z,95.90
2023-01-24T08:25:26.857Z,95.63
2023-01-24T08:27:55.068Z,95.67
2023-01-24T08:30:23.082Z,95.54
2023-01-24T08:32:51.127Z,95.63
2023-01-24T08:35:19.037Z,95.33
2023-01-24T08:37:46.820Z,95.48
2023-01-24T08:40:16.148Z,95.55
2023-01-24T08:42:44.008Z,95.44
2023-01-24T08:45:11.914Z,95.42
2023-01-24T08:47:39.686Z,95.18
2023-01-24T08:50:08.981Z,95.12
2023-01-24T08:52:36.837Z,95.38
2023-01-24T08:55:04.703Z,95.63
2023-01-24T08:57:33.838Z,95.61
2023-01-24T09:00:01.647Z,95.18
2023-01-24T09:02:30.148Z,95.22
2023-01-24T09:04:58.000Z,95.08
2023-01-24T09:07:26.223Z,95.06
2023-01-24T09:09:54.039Z,95.22
2023-01-24T09:12:21.799Z,95.25
2023-01-24T09:14:50.944Z,95.29
2023-01-24T09:17:18.741Z,94.98
2023-01-24T09:19:46.576Z,95.15
2023-01-24T09:22:14.396Z,94.84
2023-01-24T09:24:42.166Z,94.77
2023-01-24T09:27:12.013Z,95.01
2023-01-24T09:29:39.822Z,95.09
2023-01-24T09:32:09.245Z,94.97
2023-01-24T09:34:37.057Z,94.90
2023-01-24T09:37:05.008Z,94.50
2023-01-24T09:39:32.805Z,94.71
2023-01-24T09:42:11.479Z,94.87
2023-01-24T09:44:45.208Z,95.05
2023-01-24T09:47:26.229Z,95.37
2023-01-24T09:49:57.813Z,95.11
2023-01-24T09:52:35.440Z,95.42
2023-01-24T09:55:07.752Z,95.56
2023-01-24T09:57:47.276Z,95.69
2023-01-24T10:00:20.621Z,95.40
2023-01-24T10:02:50.186Z,95.44
2023-01-24T10:05:21.064Z,95.45
2023-01-24T10:08:12.196Z,95.17
2023-01-24T10:10:46.931Z,94.81
2023-01-24T10:13:28.961Z,94.99
2023-01-24T10:16:05.203Z,94.87
2023-01-24T10:18:47.463Z,94.49
2023-01-24T10:21:51.880Z,94.77
2023-01-24T10:24:25.251Z,94.77
2023-01-24T10:26:54.097Z,94.58
2023-01-24T10:29:24.285Z,94.54
2023-01-24T10:31:58.788Z,94.99
2023-01-24T10:34:35.123Z,94.86
2023-01-24T10:37:06.607Z,94.59
2023-01-24T10:39:34.545Z,94.30
2023-01-24T10:42:04.655Z,94.21
2023-01-24T10:44:38.383Z,94.30
2023-01-24T10:47:27.612Z,94.26
2023-01-24T10:50:00.680Z,94.32
2023-01-24T10:52:29.176Z,94.00
2023-01-24T10:54:58.807Z,94.28
2023-01-24T10:57:38.762Z,93.89
2023-01-24T11:00:31.446Z,93.77
2023-01-24T11:03:01.014Z,93.72
2023-01-24T11:05:43.122Z,94.01
2023-01-24T11:08:20.031Z,94.07
2023-01-24T11:10:48.371Z,93.59
2023-01-24T11:13:37.975Z,93.37
2023-01-24T11:16:08.458Z,93.08
2023-01-24T11:18:38.148Z,93.26
2023-01-24T11:21:13.847Z,92.96
2023-01-24T11:23:42.634Z,92.60
2023-01-24T11:26:23.422Z,93.13
2023-01-24T11:28:59.706Z,93.22
2023-01-24T11:31:33.505Z,92.94
2023-01-24T11:34:24.049Z,92.62
2023-01-24T11:37:05.672Z,92.54
2023-01-24T11:39:43.865Z,92.77
2023-01-24T11:42:19.147Z,92.76
2023-01-24T11:45:09.697Z,92.38
2023-01-24T11:47:45.788Z,92.40
2023-01-24T11:50:34.276Z,92.25
2023-01-24T11:53:21.195Z,92.47
2023-01-24T11:55:56.725Z,92.00
2023-01-24T11:58:46.015Z,92.07
2023-01-24T12:01:23.644Z,91.78
2023-01-24T12:04:31.570Z,91.83
2023-01-24T12:07:08.276Z,91.09
2023-01-24T12:09:45.249Z,91.03
2023-01-24T12:12:19.383Z,91.23
2023-01-24T12:15:14.914Z,91.13
2023-01-24T12:18:24.779Z,90.90
2023-01-24T12:21:01.154Z,90.85
2023-01-24T12:23:37.825Z,90.97
2023-01-24T12:26:15.474Z,90.19
2023-01-24T12:28:51.687Z,90.38
2023-01-24T12:31:30.015Z,90.24
2023-01-24T12:34:03.546Z,90.26
2023-01-24T12:36:38.210Z,90.20
2023-01-24T12:39:15.984Z,90.12
2023-01-24T12:41:51.257Z,90.07
2023-01-24T12:44:29.947Z,89.92
2023-01-24T12:47:18.617Z,89.76
2023-01-24T12:49:55.282Z,90.16
2023-01-24T12:52:29.842Z,89.90
2023-01-24T12:55:03.799Z,89.60
2023-01-24T12:57:39.941Z,90.05
2023-01-24T13:00:17.606Z,90.04
2023-01-24T13:03:11.419Z,89.75
2023-01-24T13:05:49.614Z,89.54
2023-01-24T13:08:30.559Z,89.58
2023-01-24T13:11:16.856Z,89.53
2023-01-24T13:13:53.057Z,89.13
2023-01-24T13:16:37.550Z,89.75
2023-01-24T13:19:19.298Z,90.05
2023-01-24T13:21:54.215Z,89.76
2023-01-24T13:24:35.860Z,90.06
2023-01-24T13:27:18.564Z,89.98
2023-01-24T13:30:14.302Z,90.15
2023-01-24T13:32:42.634Z,89.93
2023-01-24T13:35:17.897Z,90.07
2023-01-24T13:37:52.588Z,89.49
2023-01-24T13:40:26.135Z,89.51
2023-01-24T13:42:54.341Z,89.54
2023-01-24T13:45:51.975Z,89.45
2023-01-24T13:48:46.249Z,89.14
2023-01-24T13:51:45.829Z,89.03
2023-01-24T13:54:35.466Z,88.98
2023-01-24T13:57:21.250Z,88.90
2023-01-24T14:00:03.713Z,88.62
2023-01-24T14:02:44.224Z,88.48
2023-01-24T14:05:44.085Z,88.85
2023-01-24T14:08:35.762Z,88.92
2023-01-24T14:11:39.954Z,89.16
2023-01-24T14:14:36.863Z,89.35
2023-01-24T14:17:44.313Z,89.10
2023-01-24T14:20:23.880Z,88.96
2023-01-24T14:22:56.007Z,88.58
2023-01-24T14:25:50.424Z,88.69
2023-01-24T14:28:27.906Z,88.96
2023-01-24T14:30:59.425Z,89.36
2023-01-24T14:33:35.955Z,89.39
2023-01-24T14:36:18.110Z,89.25
2023-01-24T14:38:45.879Z,89.43
2023-01-24T14:41:22.703Z,89.44
2023-01-24T14:43:51.875Z,89.13
2023-01-24T14:46:24.512Z,89.04
2023-01-24T14:48:52.727Z,89.16
2023-01-24T14:51:25.892Z,89.21
2023-01-24T14:53:55.179Z,89.39
2023-01-24T14:56:23.501Z,89.47
2023-01-24T14:58:53.872Z,89.63
2023-01-24T15:01:27.528Z,89.50
2023-01-24T15:03:57.469Z,89.58
2023-01-24T15:06:28.784Z,89.60
2023-01-24T15:08:57.046Z,89.60
2023-01-24T15:11:30.257Z,89.73
2023-01-24T15:14:01.894Z,89.24
2023-01-24T15:16:37.098Z,89.00
2023-01-24T15:19:08.050Z,88.89
2023-01-24T15:21:40.561Z,88.82
2023-01-24T15:24:21.720Z,89.30
2023-01-24T15:26:49.980Z,89.40
2023-01-24T15:29:51.414Z,89.43
2023-01-24T15:32:31.198Z,89.79
2023-01-24T15:35:41.433Z,89.96
2023-01-24T15:38:27.587Z,89.53
2023-01-24T15:40:59.189Z,89.55
2023-01-24T15:43:48.632Z,89.72
2023-01-24T15:46:37.857Z,89.44
2023-01-24T15:49:32.079Z,89.51
2023-01-24T15:52:06.918Z,89.89
2023-01-24T15:54:37.083Z,89.84
2023-01-24T15:57:07.906Z,89.85
2023-01-24T15:59:36.614Z,90.15
2023-01-24T16:02:04.394Z,90.18
2023-01-24T16:04:33.703Z,90.11
2023-01-24T16:07:01.475Z,90.20
2023-01-24T16:09:29.257Z,90.40
2023-01-24T16:12:01.226Z,90.58
2023-01-24T16:14:30.123Z,90.60
2023-01-24T16:17:02.825Z,90.61
2023-01-24T16:19:30.669Z,90.73
2023-01-24T16:21:58.778Z,90.70
2023-01-24T16:24:26.780Z,90.95
2023-01-24T16:26:56.055Z,90.64
2023-01-24T16:29:28.983Z,90.88
2023-01-24T16:31:57.116Z,91.01
2023-01-24T16:34:25.480Z,91.23
2023-01-24T16:36:53.288Z,91.12
2023-01-24T16:39:22.882Z,91.03
2023-01-24T16:41:52.481Z,90.85
2023-01-24T16:44:20.455Z,90.88
2023-01-24T16:46:51.800Z,91.05
2023-01-24T16:49:19.886Z,91.19
2023-01-24T16:51:48.473Z,91.06
2023-01-24T16:54:16.598Z,91.12
2023-01-24T16:56:46.037Z,91.48
2023-01-24T16:59:14.020Z,91.00
2023-01-24T17:01:42.309Z,91.03
2023-01-24T17:04:12.524Z,91.19
2023-01-24T17:06:40.325Z,91.32
2023-01-24T17:09:09.611Z,91.19
2023-01-24T17:11:37.479Z,91.51
2023-01-24T17:14:05.263Z,91.58
2023-01-24T17:16:33.056Z,91.56
2023-01-24T17:19:02.677Z,91.19
2023-01-24T17:21:31.903Z,91.21
2023-01-24T17:23:59.721Z,91.03
2023-01-24T17:26:27.502Z,90.97
2023-01-24T17:28:55.419Z,90.92
2023-01-24T17:31:23.275Z,91.04
2023-01-24T17:33:51.551Z,91.14
2023-01-24T17:36:19.549Z,91.20
2023-01-24T17:38:49.055Z,91.20
2023-01-24T17:41:18.469Z,91.21
2023-01-24T17:43:52.887Z,91.13
2023-01-24T17:46:21.497Z,91.17
2023-01-24T17:48:49.355Z,91.00
2023-01-24T17:51:18.781Z,90.93
2023-01-24T17:53:48.781Z,91.16
2023-01-24T17:56:18.466Z,91.27
2023-01-24T17:58:46.708Z,91.48
2023-01-24T18:01:15.718Z,91.33
2023-01-24T18:03:45.794Z,91.26
2023-01-24T18:06:14.380Z,91.50
2023-01-24T18:08:42.303Z,91.55
2023-01-24T18:11:13.565Z,91.35
2023-01-24T18:13:42.301Z,91.13
2023-01-24T18:16:12.969Z,91.37
2023-01-24T18:18:41.735Z,91.55
2023-01-24T18:21:10.996Z,91.49
2023-01-24T18:23:39.216Z,91.58
2023-01-24T18:26:08.065Z,91.79
2023-01-24T18:28:37.948Z,91.90
2023-01-24T18:31:10.857Z,92.03
2023-01-24T18:33:39.712Z,91.98
2023-01-24T18:36:09.312Z,92.26
2023-01-24T18:38:37.256Z,92.26
2023-01-24T18:41:06.169Z,92.17
2023-01-24T18:43:34.280Z,92.23
2023-01-24T18:46:08.938Z,92.11
2023-01-24T18:48:38.761Z,92.18
2023-01-24T18:51:07.474Z,92.51
2023-01-24T18:53:35.498Z,92.77
2023-01-24T18:56:06.276Z,92.72
2023-01-24T18:58:36.046Z,92.58
2023-01-24T19:01:12.831Z,92.79
2023-01-24T19:03:41.032Z,92.98
2023-01-24T19:06:09.575Z,93.08
2023-01-24T19:08:48.641Z,92.94
2023-01-24T19:11:25.144Z,93.07
2023-01-24T19:13:53.974Z,93.03
2023-01-24T19:16:23.913Z,92.98
2023-01-24T19:18:52.734Z,93.10
2023-01-24T19:21:21.628Z,93.32
2023-01-24T19:23:50.906Z,93.24
2023-01-24T19:26:19.740Z,93.23
2023-01-24T19:28:47.817Z,93.24
2023-01-24T19:31:15.751Z,93.05
2023-01-24T19:33:44.974Z,93.04
2023-01-24T19:36:12.747Z,93.00
2023-01-24T19:38:40.610Z,92.97
2023-01-24T19:41:09.870Z,92.95
2023-01-24T19:43:39.727Z,93.12
2023-01-24T19:46:12.019Z,92.99
2023-01-24T19:48:40.950Z,92.94
2023-01-24T19:51:12.292Z,92.89
2023-01-24T19:53:40.322Z,93.09
2023-01-24T19:56:10.981Z,93.09
2023-01-24T19:58:39.157Z,93.05
2023-01-24T20:01:07.709Z,93.14
2023-01-24T20:03:37.413Z,93.05
2023-01-24T20:06:12.822Z,92.92
2023-01-24T20:08:44.874Z,92.96
2023-01-24T20:11:13.128Z,92.81
2023-01-24T20:13:41.463Z,92.89
2023-01-24T20:16:14.690Z,92.84
2023-01-24T20:18:42.670Z,92.78
2023-01-24T20:21:13.372Z,92.56
2023-01-24T20:23:41.220Z,92.49
2023-01-24T20:26:11.634Z,92.72
2023-01-24T20:28:40.770Z,92.63
2023-01-24T20:31:11.637Z,92.41
2023-01-24T20:33:40.039Z,92.91
2023-01-24T20:36:10.188Z,93.19
2023-01-24T20:38:40.284Z,93.32
2023-01-24T20:41:10.424Z,93.39
2023-01-24T20:43:39.052Z,93.17
2023-01-24T20:46:08.804Z,93.04
2023-01-24T20:48:38.378Z,92.95
2023-01-24T20:51:08.006Z,93.13
2023-01-24T20:53:36.277Z,93.14
2023-01-24T20:56:07.330Z,93.08
2023-01-24T20:58:35.914Z,93.25
2023-01-24T21:01:05.060Z,93.23
2023-01-24T21:03:33.085Z,93.47
2023-01-24T21:06:05.076Z,93.25
2023-01-24T21:08:34.430Z,92.86
2023-01-24T21:11:03.056Z,93.10
2023-01-24T21:13:40.858Z,93.07
2023-01-24T21:16:10.147Z,93.56
2023-01-24T21:18:38.092Z,93.45
2023-01-24T21:21:06.464Z,93.61
2023-01-24T21:23:34.321Z,93.35
2023-01-24T21:26:05.740Z,93.21
2023-01-24T21:28:35.616Z,93.14
2023-01-24T21:31:05.228Z,93.09
2023-01-24T21:33:33.362Z,93.12
2023-01-24T21:36:02.069Z,93.16
2023-01-24T21:38:30.665Z,93.42
2023-01-24T21:41:19.746Z,93.35
2023-01-24T21:43:48.944Z,93.33
2023-01-24T21:46:17.489Z,93.43
2023-01-24T21:49:03.626Z,93.36
2023-01-24T21:51:32.253Z,93.35
2023-01-24T21:54:07.361Z,93.43
2023-01-24T21:56:55.524Z,93.37
2023-01-24T21:59:26.707Z,93.20
2023-01-24T22:01:57.529Z,93.29
2023-01-24T22:04:26.754Z,93.18
2023-01-24T22:06:55.357Z,92.90
2023-01-24T22:09:23.460Z,92.94
2023-01-24T22:11:54.270Z,92.91
2023-01-24T22:14:27.191Z,92.83
2023-01-24T22:16:57.500Z,92.63
2023-01-24T22:19:27.738Z,92.88
2023-01-24T22:22:16.803Z,92.84
2023-01-24T22:24:59.224Z,92.68
2023-01-24T22:27:27.649Z,92.75
2023-01-24T22:29:57.663Z,93.23
2023-01-24T22:32:26.188Z,93.10
2023-01-24T22:34:57.603Z,93.18
2023-01-24T22:37:28.611Z,93.20
2023-01-24T22:39:56.816Z,93.21
2023-01-24T22:42:25.240Z,93.30
2023-01-24T22:44:53.661Z,92.96
2023-01-24T22:47:22.943Z,93.31
2023-01-24T22:49:50.813Z,93.40
2023-01-24T22:52:18.630Z,93.43
2023-01-24T22:54:46.377Z,93.42
2023-01-24T22:57:14.224Z,93.09
2023-01-24T22:59:42.003Z,92.93
2023-01-24T23:02:09.909Z,92.89
2023-01-24T23:04:39.600Z,93.03
2023-01-24T23:07:07.771Z,93.27
2023-01-24T23:09:35.710Z,93.42
2023-01-24T23:12:03.527Z,93.15
2023-01-24T23:14:48.745Z,93.17
2023-01-24T23:17:18.501Z,93.30
2023-01-24T23:20:06.130Z,93.30
2023-01-24T23:22:35.813Z,93.11
2023-01-24T23:25:05.954Z,92.92
2023-01-24T23:27:36.447Z,92.95
2023-01-24T23:30:45.582Z,93.12
2023-01-24T23:33:35.213Z,93.22
2023-01-24T23:36:04.466Z,93.24
2023-01-24T23:38:32.313Z,93.57
2023-01-24T23:41:00.239Z,93.43
2023-01-24T23:43:28.033Z,93.58
2023-01-24T23:45:55.893Z,93.43
2023-01-24T23:48:23.860Z,93.95
2023-01-24T23:50:56.049Z,93.97
2023-01-24T23:53:25.463Z,94.05
2023-01-24T23:55:53.306Z,94.27
2023-01-24T23:58:21.484Z,94.38
